Time;durP1;ratioP1;P1;durP2;ratioP2;P2;SDS_P1;SDS_P2;PMS_P1;PMS_P2;Temp;Humidity;BMP_temperature;BMP_pressure;BME280_temperature;BME280_humidity;BME280_pressure;Samples;Min_cycle;Max_cycle;Signal;HPM_P1;HPM_P2
2024/03/17 00:01:48;;;;;;;13.55;8.35;;;;;;;;;;6162412;28;20516;-83
2024/03/17 00:04:49;;;;;;;15.27;9.50;;;;;;;;;;6167218;28;20057;-82
2024/03/17 00:07:51;;;;;;;14.98;9.13;;;;;;;;;;6140125;28;20121;-82
2024/03/17 00:10:54;;;;;;;15.52;8.18;;;;;;;;;;6145958;28;20043;-82
2024/03/17 00:13:56;;;;;;;15.98;9.05;;;;;;;;;;6114339;28;20047;-83
2024/03/17 00:16:58;;;;;;;14.50;8.30;;;;;;;;;;6148697;28;20069;-83
2024/03/17 00:20:08;;;;;;;13.45;7.10;;;;;;;;;;6150206;28;20062;-82
2024/03/17 00:23:11;;;;;;;12.32;7.97;;;;;;;;;;6157273;28;20051;-83
2024/03/17 00:26:14;;;;;;;16.92;8.43;;;;;;;;;;6145478;28;20086;-83
2024/03/17 00:29:16;;;;;;;13.50;8.65;;;;;;;;;;6147088;28;20468;-82
2024/03/17 00:32:17;;;;;;;11.27;7.18;;;;;;;;;;6143462;28;20047;-82
2024/03/17 00:35:22;;;;;;;16.40;8.25;;;;;;;;;;6156323;28;20054;-83
2024/03/17 00:38:33;;;;;;;13.13;7.78;;;;;;;;;;6168565;28;20133;-83
2024/03/17 00:41:35;;;;;;;13.15;7.78;;;;;;;;;;6130828;28;20058;-83
2024/03/17 00:44:37;;;;;;;14.85;8.45;;;;;;;;;;6124114;28;20085;-83
2024/03/17 00:47:39;;;;;;;14.63;7.57;;;;;;;;;;6159963;28;20054;-83
2024/03/17 00:50:55;;;;;;;17.02;8.82;;;;;;;;;;6136105;28;20511;-83
2024/03/17 00:53:58;;;;;;;14.07;8.10;;;;;;;;;;6166551;28;20058;-82
2024/03/17 00:56:59;;;;;;;13.23;8.35;;;;;;;;;;6151655;28;20050;-83
2024/03/17 01:00:01;;;;;;;13.13;7.75;;;;;;;;;;6136436;28;20504;-83
2024/03/17 01:03:02;;;;;;;13.63;8.27;;;;;;;;;;6151124;28;20054;-82
2024/03/17 01:06:05;;;;;;;15.25;9.35;;;;;;;;;;6167134;28;20277;-82
2024/03/17 01:09:08;;;;;;;12.25;8.52;;;;;;;;;;6151927;28;20057;-82
2024/03/17 01:12:09;;;;;;;14.60;8.30;;;;;;;;;;6167333;28;20051;-81
2024/03/17 01:15:11;;;;;;;12.80;7.10;;;;;;;;;;6132566;28;20085;-82
2024/03/17 01:18:12;;;;;;;13.57;7.05;;;;;;;;;;6163335;28;20053;-82
2024/03/17 01:21:15;;;;;;;12.57;8.15;;;;;;;;;;6154346;28;20043;-82
2024/03/17 01:24:17;;;;;;;12.38;8.07;;;;;;;;;;6138482;28;20038;-83
2024/03/17 01:27:18;;;;;;;13.20;8.00;;;;;;;;;;6167235;28;20046;-82
2024/03/17 01:30:19;;;;;;;12.07;8.68;;;;;;;;;;6167137;28;20524;-83
2024/03/17 01:33:20;;;;;;;11.88;7.90;;;;;;;;;;6149044;28;20085;-83
2024/03/17 01:36:21;;;;;;;13.27;7.60;;;;;;;;;;6158528;28;20046;-83
2024/03/17 01:39:24;;;;;;;15.95;8.27;;;;;;;;;;6164349;28;20043;-82
2024/03/17 01:42:25;;;;;;;12.73;7.78;;;;;;;;;;6176238;28;20057;-83
2024/03/17 01:45:28;;;;;;;13.30;9.50;;;;;;;;;;6150652;28;20468;-82
2024/03/17 01:48:30;;;;;;;16.38;9.13;;;;;;;;;;6141335;28;20474;-83
2024/03/17 01:51:32;;;;;;;17.45;10.75;;;;;;;;;;6162823;28;20046;-82
2024/03/17 01:55:06;;;;;;;19.27;11.52;;;;;;;;;;6160250;28;20038;-83
2024/03/17 01:58:07;;;;;;;21.50;12.43;;;;;;;;;;6176758;28;20047;-83
2024/03/17 02:01:14;;;;;;;23.17;11.65;;;;;;;;;;6155307;28;20039;-83
2024/03/17 02:04:17;;;;;;;19.95;12.18;;;;;;;;;;6130664;28;20059;-83
2024/03/17 02:07:19;;;;;;;21.92;12.27;;;;;;;;;;6143502;28;20042;-83
2024/03/17 02:10:21;;;;;;;18.95;10.85;;;;;;;;;;6132684;28;20043;-82
2024/03/17 02:13:24;;;;;;;20.77;11.85;;;;;;;;;;6158456;28;20069;-83
2024/03/17 02:16:25;;;;;;;22.58;13.30;;;;;;;;;;6142773;28;20069;-81
2024/03/17 02:19:26;;;;;;;21.75;13.18;;;;;;;;;;6143242;28;20046;-84
2024/03/17 02:22:28;;;;;;;19.90;11.85;;;;;;;;;;6144621;28;20162;-83
2024/03/17 02:25:29;;;;;;;25.77;13.50;;;;;;;;;;6161065;28;20039;-83
2024/03/17 02:28:41;;;;;;;26.58;13.27;;;;;;;;;;6148533;28;20102;-83
2024/03/17 02:31:44;;;;;;;;;;;;;;;;;;6144410;28;20047;-83
2024/03/17 02:34:46;;;;;;;21.95;11.38;;;;;;;;;;6160959;28;20483;-83
2024/03/17 02:37:47;;;;;;;21.25;11.35;;;;;;;;;;6127223;28;20061;-83
2024/03/17 02:40:49;;;;;;;18.63;11.18;;;;;;;;;;6163780;28;20039;-83
2024/03/17 02:43:52;;;;;;;20.42;11.57;;;;;;;;;;6143926;28;20925;-83
2024/03/17 02:46:54;;;;;;;19.02;10.05;;;;;;;;;;6145837;28;20257;-83
2024/03/17 02:49:56;;;;;;;16.27;10.32;;;;;;;;;;6162850;28;20120;-84
2024/03/17 02:52:58;;;;;;;21.13;12.02;;;;;;;;;;6147195;28;20570;-84
2024/03/17 02:55:59;;;;;;;22.90;11.25;;;;;;;;;;6135705;28;20053;-83
2024/03/17 02:59:00;;;;;;;19.30;13.45;;;;;;;;;;6163209;28;20046;-83
2024/03/17 03:02:04;;;;;;;23.95;12.18;;;;;;;;;;6153319;28;20054;-83
2024/03/17 03:05:06;;;;;;;24.10;12.00;;;;;;;;;;6143631;28;20205;-83
2024/03/17 03:08:08;;;;;;;21.42;11.18;;;;;;;;;;6145981;28;20050;-82
2024/03/17 03:11:11;;;;;;;27.45;13.48;;;;;;;;;;6149342;28;20035;-83
2024/03/17 03:14:13;;;;;;;20.00;12.20;;;;;;;;;;6159669;28;20050;-84
2024/03/17 03:17:14;;;;;;;21.65;12.32;;;;;;;;;;6170967;28;20050;-83
2024/03/17 03:20:17;;;;;;;21.77;12.52;;;;;;;;;;6164857;28;20050;-83
2024/03/17 03:23:19;;;;;;;19.42;11.02;;;;;;;;;;6145911;28;20043;-84
2024/03/17 03:26:21;;;;;;;28.45;14.15;;;;;;;;;;6134680;28;20552;-83
2024/03/17 03:29:22;;;;;;;21.23;12.23;;;;;;;;;;6149817;28;20484;-83
2024/03/17 03:32:23;;;;;;;39.05;18.90;;;;;;;;;;6152415;28;20078;-83
2024/03/17 03:35:28;;;;;;;33.58;16.67;;;;;;;;;;6151583;28;20607;-83
2024/03/17 03:38:29;;;;;;;26.02;14.00;;;;;;;;;;6145391;28;20047;-83
2024/03/17 03:41:32;;;;;;;22.75;13.80;;;;;;;;;;6154392;28;20533;-82
2024/03/17 03:44:33;;;;;;;21.10;12.45;;;;;;;;;;6138719;28;20046;-82
2024/03/17 03:47:34;;;;;;;20.08;12.15;;;;;;;;;;6167690;28;20114;-82
2024/03/17 03:50:40;;;;;;;26.02;11.85;;;;;;;;;;6135634;28;20054;-82
2024/03/17 03:53:43;;;;;;;23.88;13.15;;;;;;;;;;6176184;28;20046;-82
2024/03/17 03:56:44;;;;;;;21.45;11.73;;;;;;;;;;6167113;28;20046;-81
2024/03/17 03:59:45;;;;;;;19.77;11.60;;;;;;;;;;6144157;28;20447;-81
2024/03/17 04:02:51;;;;;;;18.33;10.52;;;;;;;;;;6149585;28;20050;-82
2024/03/17 04:06:03;;;;;;;19.58;11.05;;;;;;;;;;6163555;28;20039;-82
2024/03/17 04:09:05;;;;;;;18.17;10.13;;;;;;;;;;6179281;28;20046;-82
2024/03/17 04:12:09;;;;;;;18.08;10.52;;;;;;;;;;6142716;28;20081;-82
2024/03/17 04:15:10;;;;;;;19.45;10.18;;;;;;;;;;6168101;28;20046;-82
2024/03/17 04:18:12;;;;;;;18.80;10.52;;;;;;;;;;6164870;28;20279;-82
2024/03/17 04:21:16;;;;;;;16.23;8.75;;;;;;;;;;6138352;28;20043;-82
2024/03/17 04:24:18;;;;;;;18.38;10.38;;;;;;;;;;6164564;28;20850;-81
2024/03/17 04:27:20;;;;;;;15.20;10.18;;;;;;;;;;6161864;28;20178;-82
2024/03/17 04:30:22;;;;;;;16.85;8.98;;;;;;;;;;6162694;28;20878;-82
2024/03/17 04:33:23;;;;;;;14.73;8.02;;;;;;;;;;6143143;28;20128;-82
2024/03/17 04:36:24;;;;;;;16.35;9.18;;;;;;;;;;6145136;28;20509;-82
2024/03/17 04:39:27;;;;;;;16.65;10.25;;;;;;;;;;6150242;28;20150;-82
2024/03/17 04:42:29;;;;;;;17.38;10.02;;;;;;;;;;6112939;28;20047;-82
2024/03/17 04:45:31;;;;;;;16.95;10.05;;;;;;;;;;6159787;28;20055;-82
2024/03/17 04:48:32;;;;;;;20.52;11.25;;;;;;;;;;6126646;28;20051;-81
2024/03/17 04:51:35;;;;;;;20.00;11.18;;;;;;;;;;6146082;28;20051;-82
2024/03/17 04:54:42;;;;;;;16.20;10.55;;;;;;;;;;6146083;28;20046;-82
2024/03/17 04:57:47;;;;;;;19.38;11.02;;;;;;;;;;6157520;28;20055;-83
2024/03/17 05:00:50;;;;;;;22.02;11.63;;;;;;;;;;6161170;28;20571;-82
2024/03/17 05:03:52;;;;;;;16.38;10.65;;;;;;;;;;6125778;28;20078;-83
2024/03/17 05:06:53;;;;;;;18.75;9.63;;;;;;;;;;6146750;28;20760;-84
2024/03/17 05:09:55;;;;;;;18.30;10.80;;;;;;;;;;6128879;28;20050;-81
2024/03/17 05:12:58;;;;;;;23.05;12.15;;;;;;;;;;6141007;28;20094;-81
2024/03/17 05:16:00;;;;;;;20.17;11.98;;;;;;;;;;6141721;28;20130;-82
2024/03/17 05:19:01;;;;;;;18.38;11.77;;;;;;;;;;6157878;28;20057;-82
2024/03/17 05:22:03;;;;;;;21.42;11.55;;;;;;;;;;6146751;28;20046;-83
2024/03/17 05:25:05;;;;;;;22.98;13.70;;;;;;;;;;6114102;28;20050;-83
2024/03/17 05:28:07;;;;;;;24.80;13.20;;;;;;;;;;6172536;28;20046;-82
2024/03/17 05:31:09;;;;;;;27.05;14.50;;;;;;;;;;6156278;28;20046;-82
2024/03/17 05:34:11;;;;;;;23.88;13.20;;;;;;;;;;6141170;28;20133;-82
2024/03/17 05:37:13;;;;;;;25.33;15.23;;;;;;;;;;6145584;28;20050;-82
2024/03/17 05:40:15;;;;;;;31.38;19.40;;;;;;;;;;6156956;28;20707;-82
2024/03/17 05:43:17;;;;;;;49.63;28.10;;;;;;;;;;6156123;28;20047;-82
2024/03/17 05:46:18;;;;;;;42.95;24.77;;;;;;;;;;6132712;28;20073;-82
2024/03/17 05:49:21;;;;;;;43.47;24.70;;;;;;;;;;6146099;28;20050;-81
2024/03/17 05:52:22;;;;;;;42.85;24.20;;;;;;;;;;6150189;28;20132;-83
2024/03/17 05:55:23;;;;;;;38.92;21.58;;;;;;;;;;6154702;28;20047;-83
2024/03/17 05:58:24;;;;;;;35.50;22.27;;;;;;;;;;6158598;28;20920;-81
2024/03/17 06:01:25;;;;;;;39.50;26.15;;;;;;;;;;6148801;28;20054;-81
2024/03/17 06:04:28;;;;;;;27.27;18.98;;;;;;;;;;6151633;28;20046;-82
2024/03/17 06:07:30;;;;;;;33.28;17.40;;;;;;;;;;6160533;28;20084;-82
2024/03/17 06:10:34;;;;;;;61.30;30.00;;;;;;;;;;6157647;28;20208;-82
2024/03/17 06:13:36;;;;;;;38.03;21.30;;;;;;;;;;6137499;28;20055;-82
2024/03/17 06:16:38;;;;;;;39.40;22.48;;;;;;;;;;6146258;28;20105;-81
2024/03/17 06:19:45;;;;;;;30.92;20.05;;;;;;;;;;6171261;28;20122;-82
2024/03/17 06:22:48;;;;;;;29.70;16.73;;;;;;;;;;6143203;28;20540;-81
2024/03/17 06:25:51;;;;;;;22.10;12.55;;;;;;;;;;6150240;28;20051;-82
2024/03/17 06:28:52;;;;;;;29.17;15.30;;;;;;;;;;6166722;28;20101;-81
2024/03/17 06:31:56;;;;;;;25.77;15.85;;;;;;;;;;6163452;28;20061;-82
2024/03/17 06:35:03;;;;;;;26.90;15.38;;;;;;;;;;6155932;28;20078;-81
2024/03/17 06:38:09;;;;;;;24.92;15.73;;;;;;;;;;6170818;28;20094;-82
2024/03/17 06:41:10;;;;;;;21.13;13.82;;;;;;;;;;6198391;28;20034;-81
2024/03/17 06:44:12;;;;;;;26.58;16.98;;;;;;;;;;6192300;28;20062;-81
2024/03/17 06:47:13;;;;;;;28.25;16.08;;;;;;;;;;6171658;28;20059;-81
2024/03/17 06:50:15;;;;;;;22.17;13.45;;;;;;;;;;6171008;28;20047;-82
2024/03/17 06:53:18;;;;;;;24.58;14.10;;;;;;;;;;6167377;28;20053;-82
2024/03/17 06:56:19;;;;;;;23.15;13.38;;;;;;;;;;6163514;28;20050;-82
2024/03/17 06:59:21;;;;;;;22.35;12.88;;;;;;;;;;6132485;28;20038;-82
2024/03/17 07:02:23;;;;;;;22.60;13.07;;;;;;;;;;6146179;28;20429;-84
2024/03/17 07:05:24;;;;;;;20.00;10.93;;;;;;;;;;6145638;28;21103;-82
2024/03/17 07:08:25;;;;;;;17.98;11.57;;;;;;;;;;6160423;28;20222;-81
2024/03/17 07:11:27;;;;;;;20.08;12.27;;;;;;;;;;6132660;28;20527;-82
2024/03/17 07:14:31;;;;;;;21.35;13.30;;;;;;;;;;6150081;28;20759;-81
2024/03/17 07:17:33;;;;;;;20.20;12.02;;;;;;;;;;6131322;28;20039;-81
2024/03/17 07:20:34;;;;;;;20.30;13.82;;;;;;;;;;6143882;28;20042;-82
2024/03/17 07:23:36;;;;;;;19.08;12.48;;;;;;;;;;6146214;28;20046;-82
2024/03/17 07:26:38;;;;;;;18.80;11.48;;;;;;;;;;6144918;28;20054;-82
2024/03/17 07:29:39;;;;;;;20.67;13.02;;;;;;;;;;6147883;28;20042;-81
2024/03/17 07:32:42;;;;;;;21.60;13.10;;;;;;;;;;6145055;28;20058;-81
2024/03/17 07:35:59;;;;;;;18.50;11.77;;;;;;;;;;6146705;28;20141;-81
2024/03/17 07:39:02;;;;;;;19.25;13.52;;;;;;;;;;6160606;28;20482;-81
2024/03/17 07:42:04;;;;;;;20.70;12.18;;;;;;;;;;6142566;28;20047;-82
2024/03/17 07:45:05;;;;;;;16.60;9.70;;;;;;;;;;6164530;28;20054;-82
2024/03/17 07:48:08;;;;;;;14.48;9.20;;;;;;;;;;6164696;28;20038;-81
2024/03/17 07:51:11;;;;;;;16.17;9.88;;;;;;;;;;6145168;28;20105;-82
2024/03/17 07:54:13;;;;;;;14.20;7.55;;;;;;;;;;6142206;28;20058;-82
2024/03/17 07:57:14;;;;;;;16.23;10.50;;;;;;;;;;6130371;28;20074;-82
2024/03/17 08:00:16;;;;;;;18.75;9.88;;;;;;;;;;6159331;28;20039;-81
2024/03/17 08:03:18;;;;;;;13.82;8.32;;;;;;;;;;6171252;28;20051;-82
2024/03/17 08:06:20;;;;;;;18.65;10.90;;;;;;;;;;6158814;28;20051;-82
2024/03/17 08:09:22;;;;;;;17.40;10.18;;;;;;;;;;6145564;28;20045;-81
2024/03/17 08:12:23;;;;;;;11.48;8.23;;;;;;;;;;6139483;28;20074;-81
2024/03/17 08:15:25;;;;;;;17.85;10.80;;;;;;;;;;6164104;28;20055;-82
2024/03/17 08:18:27;;;;;;;12.85;7.95;;;;;;;;;;6161416;28;20031;-81
2024/03/17 08:21:29;;;;;;;16.17;10.90;;;;;;;;;;6151036;28;20053;-82
2024/03/17 08:24:31;;;;;;;16.58;10.10;;;;;;;;;;6157470;28;20153;-82
2024/03/17 08:27:32;;;;;;;17.92;9.73;;;;;;;;;;6142858;28;20049;-81
2024/03/17 08:30:33;;;;;;;13.60;8.32;;;;;;;;;;6162369;28;20030;-81
2024/03/17 08:33:36;;;;;;;15.23;8.60;;;;;;;;;;6162085;28;20039;-82
2024/03/17 08:36:37;;;;;;;16.00;8.93;;;;;;;;;;6148095;28;20572;-83
2024/03/17 08:39:39;;;;;;;16.65;11.18;;;;;;;;;;6179491;28;20054;-81
2024/03/17 08:42:41;;;;;;;13.93;8.70;;;;;;;;;;6144243;28;20051;-81
2024/03/17 08:45:43;;;;;;;10.95;6.22;;;;;;;;;;6158458;28;20849;-82
2024/03/17 08:48:46;;;;;;;22.98;11.15;;;;;;;;;;6154802;28;20517;-82
2024/03/17 08:51:46;;;;;;;19.05;11.70;;;;;;;;;;6160178;28;20043;-82
2024/03/17 08:54:47;;;;;;;11.73;7.80;;;;;;;;;;6131769;28;20061;-83
2024/03/17 08:57:51;;;;;;;11.27;7.40;;;;;;;;;;6146388;28;20805;-81
2024/03/17 09:00:53;;;;;;;9.20;5.57;;;;;;;;;;6163854;28;20043;-82
2024/03/17 09:03:56;;;;;;;8.07;5.35;;;;;;;;;;6166857;28;20098;-82
2024/03/17 09:07:00;;;;;;;11.20;8.13;;;;;;;;;;6177661;28;20150;-81
2024/03/17 09:10:02;;;;;;;12.20;5.72;;;;;;;;;;6147011;28;20043;-84
2024/03/17 09:13:04;;;;;;;9.90;6.18;;;;;;;;;;6134147;28;20476;-82
2024/03/17 09:16:06;;;;;;;12.02;7.85;;;;;;;;;;6141575;28;20165;-82
2024/03/17 09:19:08;;;;;;;14.10;8.10;;;;;;;;;;6141053;28;20054;-84
2024/03/17 09:22:10;;;;;;;12.98;7.85;;;;;;;;;;6129964;28;20051;-81
2024/03/17 09:25:11;;;;;;;11.57;7.05;;;;;;;;;;6139057;28;20047;-81
2024/03/17 09:28:13;;;;;;;10.93;7.80;;;;;;;;;;6174430;28;20799;-82
2024/03/17 09:31:17;;;;;;;11.07;6.13;;;;;;;;;;6160926;28;20038;-82
2024/03/17 09:34:18;;;;;;;12.20;6.47;;;;;;;;;;6144009;28;20051;-81
2024/03/17 09:37:21;;;;;;;13.30;5.20;;;;;;;;;;6126285;28;20101;-83
2024/03/17 09:40:23;;;;;;;11.50;8.10;;;;;;;;;;6163051;28;20035;-82
2024/03/17 09:43:27;;;;;;;8.73;4.95;;;;;;;;;;6146030;28;20051;-82
2024/03/17 09:46:29;;;;;;;12.48;6.80;;;;;;;;;;6145564;28;20054;-82
2024/03/17 09:49:30;;;;;;;8.93;5.53;;;;;;;;;;6161276;28;20042;-82
2024/03/17 09:52:34;;;;;;;12.57;6.93;;;;;;;;;;6158905;28;20673;-82
2024/03/17 09:55:37;;;;;;;12.18;7.20;;;;;;;;;;6160384;28;20933;-84
2024/03/17 09:58:40;;;;;;;10.48;6.47;;;;;;;;;;6143548;28;20134;-82
2024/03/17 10:01:45;;;;;;;8.20;5.03;;;;;;;;;;6134584;28;20050;-82
2024/03/17 10:04:47;;;;;;;8.70;5.57;;;;;;;;;;6173967;28;20089;-82
2024/03/17 10:07:49;;;;;;;9.13;4.97;;;;;;;;;;6131649;28;20608;-83
2024/03/17 10:10:53;;;;;;;7.05;4.65;;;;;;;;;;6143679;28;20142;-83
2024/03/17 10:14:04;;;;;;;9.52;5.65;;;;;;;;;;6172126;28;20055;-81
2024/03/17 10:17:05;;;;;;;9.65;6.30;;;;;;;;;;6143454;28;20113;-82
2024/03/17 10:20:18;;;;;;;11.10;5.53;;;;;;;;;;6157296;28;20047;-87
2024/03/17 10:23:20;;;;;;;10.52;6.07;;;;;;;;;;6168162;28;20053;-82
2024/03/17 10:26:22;;;;;;;10.15;5.70;;;;;;;;;;6157858;28;20066;-82
2024/03/17 10:29:30;;;;;;;12.30;5.18;;;;;;;;;;6147003;28;20038;-82
2024/03/17 10:32:33;;;;;;;8.98;5.13;;;;;;;;;;6161577;28;20210;-81
2024/03/17 10:35:38;;;;;;;10.65;6.15;;;;;;;;;;6155725;28;20054;-81
2024/03/17 10:38:51;;;;;;;10.18;5.20;;;;;;;;;;6153342;28;20739;-80
2024/03/17 10:42:04;;;;;;;7.40;5.22;;;;;;;;;;6149392;28;20050;-80
2024/03/17 10:45:08;;;;;;;11.95;5.00;;;;;;;;;;6179897;28;20081;-81
2024/03/17 10:48:14;;;;;;;7.45;3.63;;;;;;;;;;6151059;28;20062;-81
2024/03/17 10:51:17;;;;;;;7.15;3.63;;;;;;;;;;6130919;28;20097;-81
2024/03/17 10:54:25;;;;;;;10.13;4.22;;;;;;;;;;6130325;28;20050;-80
2024/03/17 10:57:36;;;;;;;8.98;5.10;;;;;;;;;;6160821;28;20050;-80
2024/03/17 11:00:37;;;;;;;8.48;5.55;;;;;;;;;;6162028;28;20689;-81
2024/03/17 11:03:39;;;;;;;6.70;3.95;;;;;;;;;;6145709;28;20054;-81
2024/03/17 11:06:44;;;;;;;7.45;4.78;;;;;;;;;;6144623;28;20532;-83
2024/03/17 11:09:49;;;;;;;8.63;5.38;;;;;;;;;;6147838;28;20059;-82
2024/03/17 11:12:58;;;;;;;7.72;4.13;;;;;;;;;;6150129;28;20055;-82
2024/03/17 11:16:01;;;;;;;11.18;5.22;;;;;;;;;;6148296;28;20061;-82
2024/03/17 11:19:10;;;;;;;6.60;3.53;;;;;;;;;;6145366;28;20047;-83
2024/03/17 11:22:43;;;;;;;6.32;3.42;;;;;;;;;;6145945;28;20050;-82
2024/03/17 11:25:51;;;;;;;8.95;4.38;;;;;;;;;;6175941;28;20043;-80
2024/03/17 11:28:53;;;;;;;6.70;4.18;;;;;;;;;;6161007;28;20571;-80
2024/03/17 11:31:55;;;;;;;5.95;2.97;;;;;;;;;;6140086;28;20656;-82
2024/03/17 11:35:13;;;;;;;7.18;4.18;;;;;;;;;;6131075;28;20054;-80
2024/03/17 11:38:56;;;;;;;7.53;3.05;;;;;;;;;;6165763;28;20047;-81
2024/03/17 11:42:10;;;;;;;4.85;3.20;;;;;;;;;;6120070;29;20051;-80
2024/03/17 11:45:15;;;;;;;8.98;4.72;;;;;;;;;;6131217;29;20047;-80
2024/03/17 11:48:17;;;;;;;9.02;5.18;;;;;;;;;;6094597;29;20043;-80
2024/03/17 11:51:19;;;;;;;7.53;3.95;;;;;;;;;;6112264;28;20500;-80
2024/03/17 11:54:24;;;;;;;9.40;4.88;;;;;;;;;;6134127;28;20105;-78
2024/03/17 11:57:28;;;;;;;9.02;4.60;;;;;;;;;;6169702;28;20051;-79
2024/03/17 12:00:29;;;;;;;6.65;3.97;;;;;;;;;;6165033;28;20081;-78
2024/03/17 12:03:31;;;;;;;8.90;4.90;;;;;;;;;;6139624;28;20053;-80
2024/03/17 12:06:32;;;;;;;11.27;5.72;;;;;;;;;;6167183;28;20043;-78
2024/03/17 12:09:35;;;;;;;10.27;7.45;;;;;;;;;;6155008;28;22227;-79
2024/03/17 12:12:36;;;;;;;7.47;4.40;;;;;;;;;;6183972;28;20078;-80
2024/03/17 12:15:37;;;;;;;8.38;5.10;;;;;;;;;;6153097;28;20058;-80
2024/03/17 12:18:45;;;;;;;8.02;4.30;;;;;;;;;;6152216;28;20055;-79
2024/03/17 12:21:49;;;;;;;8.32;4.72;;;;;;;;;;6169782;28;20047;-80
2024/03/17 12:24:53;;;;;;;5.72;2.78;;;;;;;;;;6159062;28;20054;-80
2024/03/17 12:27:54;;;;;;;7.22;4.03;;;;;;;;;;6139622;28;20049;-81
2024/03/17 12:30:59;;;;;;;5.78;3.40;;;;;;;;;;6153446;28;20053;-79
2024/03/17 12:34:00;;;;;;;5.80;3.15;;;;;;;;;;6151030;28;20520;-81
2024/03/17 12:37:02;;;;;;;6.97;4.30;;;;;;;;;;6130784;28;20323;-82
2024/03/17 12:40:04;;;;;;;6.43;3.78;;;;;;;;;;6154754;28;20046;-82
2024/03/17 12:43:08;;;;;;;5.90;3.70;;;;;;;;;;6168317;28;20046;-82
2024/03/17 12:46:13;;;;;;;6.65;3.65;;;;;;;;;;6157008;28;20521;-81
2024/03/17 12:49:15;;;;;;;6.15;3.55;;;;;;;;;;6135149;28;20713;-81
2024/03/17 12:52:21;;;;;;;6.13;4.18;;;;;;;;;;6164361;28;20527;-81
2024/03/17 13:02:10;;;;;;;6.28;3.70;;;;;;;;;;6166194;28;20962;-81
2024/03/17 13:05:20;;;;;;;9.30;3.90;;;;;;;;;;6128988;28;20133;-81
2024/03/17 13:08:21;;;;;;;7.70;4.40;;;;;;;;;;6177821;28;20051;-81
2024/03/17 13:11:23;;;;;;;10.80;5.78;;;;;;;;;;6162284;28;20039;-82
2024/03/17 13:14:25;;;;;;;6.93;4.72;;;;;;;;;;6160786;28;20065;-82
2024/03/17 13:17:29;;;;;;;5.55;3.40;;;;;;;;;;6143485;28;20042;-81
2024/03/17 13:20:31;;;;;;;6.85;3.60;;;;;;;;;;6154656;28;20050;-82
2024/03/17 13:23:32;;;;;;;6.85;3.63;;;;;;;;;;6144182;28;20532;-82
2024/03/17 13:26:34;;;;;;;7.03;3.13;;;;;;;;;;6149554;28;20108;-82
2024/03/17 13:29:38;;;;;;;6.85;4.10;;;;;;;;;;6149323;28;20062;-82
2024/03/17 13:32:44;;;;;;;7.82;4.65;;;;;;;;;;6154555;28;20063;-83
2024/03/17 13:35:46;;;;;;;9.80;5.10;;;;;;;;;;6161999;28;20137;-83
2024/03/17 13:38:52;;;;;;;5.40;3.58;;;;;;;;;;6130797;28;20046;-83
2024/03/17 13:41:57;;;;;;;6.50;4.13;;;;;;;;;;6130287;28;20557;-82
2024/03/17 13:45:39;;;;;;;6.85;3.88;;;;;;;;;;6142933;28;20069;-83
2024/03/17 13:48:41;;;;;;;8.60;5.80;;;;;;;;;;6187908;28;20043;-82
2024/03/17 13:51:43;;;;;;;8.00;4.53;;;;;;;;;;6166281;28;20042;-80
2024/03/17 13:54:44;;;;;;;8.95;6.38;;;;;;;;;;6144634;28;20452;-81
2024/03/17 13:57:47;;;;;;;8.45;5.57;;;;;;;;;;6128316;28;20076;-80
2024/03/17 14:00:50;;;;;;;7.97;4.82;;;;;;;;;;6144829;28;20050;-80
2024/03/17 14:03:52;;;;;;;6.78;4.18;;;;;;;;;;6126209;28;20109;-80
2024/03/17 14:06:55;;;;;;;9.85;6.47;;;;;;;;;;6126891;28;20050;-81
2024/03/17 14:09:56;;;;;;;28.35;24.98;;;;;;;;;;6107510;28;20062;-81
2024/03/17 14:12:58;;;;;;;11.85;7.93;;;;;;;;;;6107828;28;20054;-81
2024/03/17 14:16:01;;;;;;;11.30;8.18;;;;;;;;;;6137922;28;20051;-80
2024/03/17 14:19:02;;;;;;;14.65;8.88;;;;;;;;;;6142127;28;20043;-80
2024/03/17 14:22:04;;;;;;;22.52;14.60;;;;;;;;;;6147639;28;20046;-79
2024/03/17 14:25:06;;;;;;;20.38;12.77;;;;;;;;;;6142580;28;20422;-80
2024/03/17 14:28:07;;;;;;;64.28;35.67;;;;;;;;;;6120508;28;20051;-80
2024/03/17 14:31:08;;;;;;;9.00;5.05;;;;;;;;;;6129191;28;20039;-79
2024/03/17 14:34:11;;;;;;;9.18;6.18;;;;;;;;;;6142759;28;20055;-81
2024/03/17 14:37:12;;;;;;;13.70;7.00;;;;;;;;;;6133387;28;20054;-81
2024/03/17 14:40:23;;;;;;;14.30;7.60;;;;;;;;;;6136624;28;20046;-82
2024/03/17 14:43:25;;;;;;;8.18;5.10;;;;;;;;;;6178040;28;20046;-82
2024/03/17 14:46:27;;;;;;;10.77;6.75;;;;;;;;;;6138107;28;21024;-82
2024/03/17 14:49:29;;;;;;;10.77;6.88;;;;;;;;;;6156726;28;20043;-82
2024/03/17 14:52:31;;;;;;;12.55;6.65;;;;;;;;;;6140853;28;20047;-82
2024/03/17 14:55:32;;;;;;;11.32;6.90;;;;;;;;;;6156943;28;20057;-81
2024/03/17 14:58:34;;;;;;;9.48;4.95;;;;;;;;;;6154656;28;20077;-81
2024/03/17 15:01:36;;;;;;;11.13;6.43;;;;;;;;;;6139318;28;20489;-80
2024/03/17 15:04:37;;;;;;;10.60;5.72;;;;;;;;;;6170275;28;20186;-81
2024/03/17 15:07:41;;;;;;;8.43;5.18;;;;;;;;;;6127437;28;20058;-81
2024/03/17 15:10:42;;;;;;;8.25;5.05;;;;;;;;;;6152935;28;20050;-80
2024/03/17 15:13:45;;;;;;;9.52;6.90;;;;;;;;;;6142161;28;20074;-80
2024/03/17 15:16:47;;;;;;;8.77;6.22;;;;;;;;;;6164366;28;20078;-80
2024/03/17 15:19:49;;;;;;;10.15;7.32;;;;;;;;;;6126152;28;20047;-79
2024/03/17 15:22:51;;;;;;;7.53;5.47;;;;;;;;;;6150163;28;20576;-79
2024/03/17 15:25:52;;;;;;;8.07;5.25;;;;;;;;;;6142108;28;20047;-80
2024/03/17 15:28:55;;;;;;;9.52;6.40;;;;;;;;;;6158369;28;20879;-79
2024/03/17 15:31:57;;;;;;;9.60;4.70;;;;;;;;;;6160281;28;20453;-78
2024/03/17 15:35:00;;;;;;;8.93;5.75;;;;;;;;;;6141075;28;20059;-79
2024/03/17 15:38:03;;;;;;;7.53;5.32;;;;;;;;;;6141421;28;20588;-79
2024/03/17 15:41:07;;;;;;;9.32;6.18;;;;;;;;;;6160598;28;20058;-81
2024/03/17 15:44:11;;;;;;;7.63;4.63;;;;;;;;;;6159394;28;20102;-80
2024/03/17 15:47:13;;;;;;;9.48;5.57;;;;;;;;;;6157753;28;20047;-80
2024/03/17 15:50:15;;;;;;;9.52;5.65;;;;;;;;;;6145096;28;20551;-81
2024/03/17 15:53:16;;;;;;;11.27;6.85;;;;;;;;;;6158144;28;20229;-81
2024/03/17 15:56:17;;;;;;;16.33;8.40;;;;;;;;;;6141421;28;20073;-81
2024/03/17 15:59:22;;;;;;;10.00;6.90;;;;;;;;;;6144950;28;20055;-80
2024/03/17 16:02:30;;;;;;;12.23;7.45;;;;;;;;;;6145784;28;20050;-80
2024/03/17 16:05:31;;;;;;;10.40;6.43;;;;;;;;;;6163874;28;20053;-79
2024/03/17 16:08:39;;;;;;;10.90;7.03;;;;;;;;;;6129499;28;20109;-78
2024/03/17 16:11:43;;;;;;;12.48;7.97;;;;;;;;;;6162321;28;20055;-80
2024/03/17 16:14:46;;;;;;;12.00;7.40;;;;;;;;;;6154998;28;20050;-79
2024/03/17 16:17:48;;;;;;;13.48;9.90;;;;;;;;;;6141084;28;20059;-79
2024/03/17 16:20:52;;;;;;;12.23;8.23;;;;;;;;;;6173878;28;20543;-79
2024/03/17 16:24:23;;;;;;;14.32;9.05;;;;;;;;;;6156088;28;20050;-80
2024/03/17 16:27:24;;;;;;;21.40;11.48;;;;;;;;;;6142698;28;20521;-80
2024/03/17 16:30:26;;;;;;;17.77;10.27;;;;;;;;;;6179345;28;20050;-80
2024/03/17 16:33:29;;;;;;;26.02;13.90;;;;;;;;;;6160763;28;20050;-80
2024/03/17 16:36:32;;;;;;;18.23;10.45;;;;;;;;;;6146857;28;20053;-79
2024/03/17 16:39:34;;;;;;;25.98;13.40;;;;;;;;;;6149985;28;20150;-80
2024/03/17 16:42:35;;;;;;;30.83;15.55;;;;;;;;;;6161344;28;20051;-80
2024/03/17 16:45:42;;;;;;;34.30;17.52;;;;;;;;;;6144047;28;20047;-80
2024/03/17 16:48:43;;;;;;;21.20;9.77;;;;;;;;;;6128732;28;20516;-80
2024/03/17 16:51:45;;;;;;;26.38;12.32;;;;;;;;;;6143768;28;20733;-81
2024/03/17 16:54:48;;;;;;;17.30;9.65;;;;;;;;;;6114913;28;20073;-80
2024/03/17 16:57:50;;;;;;;14.60;8.50;;;;;;;;;;6168181;28;20055;-80
2024/03/17 17:00:51;;;;;;;15.98;9.38;;;;;;;;;;6159838;28;20055;-80
2024/03/17 17:03:53;;;;;;;14.50;8.48;;;;;;;;;;6180099;28;20046;-81
2024/03/17 17:06:57;;;;;;;11.85;7.80;;;;;;;;;;6149748;28;20081;-80
2024/03/17 17:09:59;;;;;;;17.08;9.73;;;;;;;;;;6159029;28;20042;-80
2024/03/17 17:13:01;;;;;;;18.55;11.70;;;;;;;;;;6143531;28;20073;-81
2024/03/17 17:16:03;;;;;;;32.78;17.88;;;;;;;;;;6119814;28;20057;-81
2024/03/17 17:19:05;;;;;;;40.60;22.13;;;;;;;;;;6146236;28;20152;-81
2024/03/17 17:22:07;;;;;;;33.38;19.88;;;;;;;;;;6159203;28;20043;-81
2024/03/17 17:25:14;;;;;;;32.88;18.85;;;;;;;;;;6129926;28;20058;-81
2024/03/17 17:28:16;;;;;;;38.75;19.27;;;;;;;;;;6175859;28;20047;-81
2024/03/17 17:31:18;;;;;;;28.27;15.93;;;;;;;;;;6146366;28;20090;-81
2024/03/17 17:34:20;;;;;;;28.27;15.02;;;;;;;;;;6113843;28;20042;-80
2024/03/17 17:37:23;;;;;;;23.63;14.73;;;;;;;;;;6149500;28;20109;-80
2024/03/17 17:40:25;;;;;;;26.45;16.70;;;;;;;;;;6148720;28;20112;-81
2024/03/17 17:43:26;;;;;;;26.85;16.83;;;;;;;;;;6143419;28;20138;-81
2024/03/17 17:46:28;;;;;;;20.75;10.88;;;;;;;;;;6141449;28;20113;-81
2024/03/17 17:49:30;;;;;;;22.05;11.38;;;;;;;;;;6136338;28;20051;-80
2024/03/17 17:52:31;;;;;;;17.98;11.15;;;;;;;;;;6157050;28;20073;-81
2024/03/17 17:55:33;;;;;;;23.35;13.52;;;;;;;;;;6143332;28;20043;-81
2024/03/17 17:58:36;;;;;;;21.75;14.45;;;;;;;;;;6158152;28;20057;-81
2024/03/17 18:01:37;;;;;;;25.00;15.45;;;;;;;;;;6143174;28;20644;-81
2024/03/17 18:04:39;;;;;;;35.47;24.60;;;;;;;;;;6137561;28;20760;-80
2024/03/17 18:07:42;;;;;;;56.30;33.42;;;;;;;;;;6156976;28;20054;-80